Time;durP1;ratioP1;P1;durP2;ratioP2;P2;SDS_P1;SDS_P2;PMS_P1;PMS_P2;Temp;Humidity;BMP_temperature;BMP_pressure;BME280_temperature;BME280_humidity;BME280_pressure;Samples;Min_cycle;Max_cycle;Signal;HPM_P1;HPM_P2
2023/07/03 00:02:01;;;;;;;;;;;22.10;69.30;;;;;;5009162;28;91692;-44
2023/07/03 00:04:27;;;;;;;;;;;22.10;69.20;;;;;;5009560;28;92180;-44
2023/07/03 00:06:52;;;;;;;;;;;22.10;69.20;;;;;;5006889;28;92420;-46
2023/07/03 00:09:18;;;;;;;;;;;22.10;69.20;;;;;;5003897;28;94288;-45
2023/07/03 00:11:43;;;;;;;;;;;22.10;69.20;;;;;;5008972;28;92116;-45
2023/07/03 00:14:09;;;;;;;;;;;22.00;69.20;;;;;;5007099;28;92583;-47
2023/07/03 00:16:34;;;;;;;;;;;22.00;69.20;;;;;;5007724;28;93407;-44
2023/07/03 00:19:00;;;;;;;;;;;22.00;69.30;;;;;;5007319;28;92131;-44
2023/07/03 00:21:26;;;;;;;;;;;22.00;69.20;;;;;;5008320;28;92923;-47
2023/07/03 00:23:51;;;;;;;;;;;22.00;69.30;;;;;;5007493;28;93140;-45
2023/07/03 00:26:17;;;;;;;;;;;22.00;69.30;;;;;;5008407;28;93868;-44
2023/07/03 00:28:42;;;;;;;;;;;22.00;69.30;;;;;;5006620;28;93033;-46
2023/07/03 00:31:08;;;;;;;;;;;21.90;69.30;;;;;;5008497;28;92573;-48
2023/07/03 00:33:33;;;;;;;;;;;21.90;69.30;;;;;;5006023;28;92991;-46
2023/07/03 00:35:59;;;;;;;;;;;21.90;69.30;;;;;;5007579;28;93196;-47
2023/07/03 00:38:24;;;;;;;;;;;21.90;69.20;;;;;;5005633;28;92162;-47
2023/07/03 00:40:50;;;;;;;;;;;21.90;69.30;;;;;;5008454;28;93843;-47
2023/07/03 00:43:15;;;;;;;;;;;21.90;69.40;;;;;;5005133;28;93217;-45
2023/07/03 00:45:41;;;;;;;;;;;21.80;69.30;;;;;;5012023;28;92487;-48
2023/07/03 00:48:07;;;;;;;;;;;21.90;70.00;;;;;;5000942;28;93101;-49
2023/07/03 00:50:34;;;;;;;;;;;21.80;69.30;;;;;;5008947;28;91570;-47
2023/07/03 00:53:01;;;;;;;;;;;21.80;69.20;;;;;;5010087;28;92952;-44
2023/07/03 00:55:27;;;;;;;;;;;21.80;69.20;;;;;;5007845;28;93200;-49
2023/07/03 00:57:52;;;;;;;;;;;21.80;69.20;;;;;;5011514;28;93436;-50
2023/07/03 01:00:19;;;;;;;;;;;21.80;69.10;;;;;;5009344;28;94118;-48
2023/07/03 01:02:48;;;;;;;;;;;21.80;69.40;;;;;;5011381;28;93009;-45
2023/07/03 01:05:24;;;;;;;;;;;21.80;69.30;;;;;;5008836;28;92217;-50
2023/07/03 01:07:50;;;;;;;;;;;21.70;69.20;;;;;;5008118;28;93669;-43
2023/07/03 01:10:20;;;;;;;;;;;21.80;69.20;;;;;;5011156;28;92073;-44
2023/07/03 01:12:47;;;;;;;;;;;21.70;69.30;;;;;;5009131;28;92577;-43
2023/07/03 01:15:17;;;;;;;;;;;21.80;69.20;;;;;;5011495;28;92424;-44
2023/07/03 01:17:44;;;;;;;;;;;21.70;69.20;;;;;;5009603;28;92137;-46
2023/07/03 01:20:13;;;;;;;;;;;21.70;69.20;;;;;;5010964;28;93648;-44
2023/07/03 01:22:49;;;;;;;;;;;21.60;69.30;;;;;;5008796;28;93923;-46
2023/07/03 01:25:16;;;;;;;;;;;21.60;69.30;;;;;;5007833;28;92713;-44
2023/07/03 01:27:44;;;;;;;;;;;21.60;69.20;;;;;;5009494;28;92493;-44
2023/07/03 01:30:12;;;;;;;;;;;21.60;69.20;;;;;;5013714;28;92675;-44
2023/07/03 01:32:39;;;;;;;;;;;21.60;69.20;;;;;;5008898;28;92793;-44
2023/07/03 01:35:05;;;;;;;;;;;21.60;69.20;;;;;;5010802;28;93025;-43
2023/07/03 01:37:32;;;;;;;;;;;21.60;69.20;;;;;;5009218;28;92566;-47
2023/07/03 01:39:58;;;;;;;;;;;21.60;69.20;;;;;;5007557;28;92556;-43
2023/07/03 01:42:25;;;;;;;;;;;21.60;69.20;;;;;;5011134;28;93098;-44
2023/07/03 01:44:51;;;;;;;;;;;21.60;69.10;;;;;;5009887;28;92025;-44
2023/07/03 01:47:17;;;;;;;;;;;21.60;69.30;;;;;;5010922;28;94043;-44
2023/07/03 01:49:42;;;;;;;;;;;21.60;69.30;;;;;;5009545;28;93133;-45
2023/07/03 01:52:10;;;;;;;;;;;21.50;69.20;;;;;;5014022;28;92132;-44
2023/07/03 01:54:51;;;;;;;;;;;21.60;69.30;;;;;;5007264;28;93215;-44
2023/07/03 01:57:21;;;;;;;;;;;21.50;69.20;;;;;;5005030;28;92022;-43
2023/07/03 01:59:50;;;;;;;;;;;21.50;69.10;;;;;;5012088;28;92986;-45
2023/07/03 02:02:17;;;;;;;;;;;21.50;69.20;;;;;;5008602;28;94411;-43
2023/07/03 02:04:50;;;;;;;;;;;21.50;69.30;;;;;;5010790;28;91366;-43
2023/07/03 02:07:16;;;;;;;;;;;21.50;69.30;;;;;;5010085;28;93211;-44
2023/07/03 02:09:42;;;;;;;;;;;21.50;69.20;;;;;;5007005;28;93098;-45
2023/07/03 02:12:09;;;;;;;;;;;21.40;69.30;;;;;;5013338;28;93721;-43
2023/07/03 02:14:35;;;;;;;;;;;21.40;69.30;;;;;;5008942;28;94718;-44
2023/07/03 02:17:01;;;;;;;;;;;21.40;69.30;;;;;;5011218;28;92147;-44
2023/07/03 02:19:29;;;;;;;;;;;21.40;69.20;;;;;;5008909;28;93767;-45
2023/07/03 02:21:56;;;;;;;;;;;21.40;69.20;;;;;;5007397;28;94232;-45
2023/07/03 02:24:22;;;;;;;;;;;21.40;69.30;;;;;;5009470;28;92310;-43
2023/07/03 02:26:47;;;;;;;;;;;21.40;69.30;;;;;;5008977;28;92442;-45
2023/07/03 02:29:13;;;;;;;;;;;21.40;69.30;;;;;;5011117;28;92673;-44
2023/07/03 02:31:38;;;;;;;;;;;21.30;69.20;;;;;;5008678;28;92181;-46
2023/07/03 02:34:04;;;;;;;;;;;21.30;69.20;;;;;;5014427;28;92508;-44
2023/07/03 02:36:33;;;;;;;;;;;21.40;69.20;;;;;;5007277;28;93110;-44
2023/07/03 02:38:58;;;;;;;;;;;21.30;69.20;;;;;;5011330;28;94759;-43
2023/07/03 02:41:24;;;;;;;;;;;21.30;69.20;;;;;;5006501;28;92838;-47
2023/07/03 02:43:50;;;;;;;;;;;21.30;69.20;;;;;;5011608;28;92151;-44
2023/07/03 02:46:16;;;;;;;;;;;21.30;69.30;;;;;;5007586;28;94196;-45
2023/07/03 02:48:41;;;;;;;;;;;21.30;69.20;;;;;;5011035;28;93338;-43
2023/07/03 02:51:07;;;;;;;;;;;21.30;69.20;;;;;;5008160;28;92408;-44
2023/07/03 02:53:33;;;;;;;;;;;21.30;69.20;;;;;;5011534;28;92460;-44
2023/07/03 02:55:58;;;;;;;;;;;21.30;69.20;;;;;;5010737;28;94299;-44
2023/07/03 02:58:24;;;;;;;;;;;21.30;69.20;;;;;;5008601;28;92528;-44
2023/07/03 03:00:50;;;;;;;;;;;21.20;69.20;;;;;;5009121;28;94048;-43
2023/07/03 03:03:16;;;;;;;;;;;21.20;69.20;;;;;;5008937;28;92185;-44
2023/07/03 03:05:41;;;;;;;;;;;21.20;69.30;;;;;;5010136;28;92574;-43
2023/07/03 03:08:07;;;;;;;;;;;21.20;69.30;;;;;;5008867;28;92290;-46
2023/07/03 03:10:33;;;;;;;;;;;21.20;69.30;;;;;;5008117;28;92305;-43
2023/07/03 03:12:59;;;;;;;;;;;21.20;69.20;;;;;;5009470;28;92443;-45
2023/07/03 03:15:25;;;;;;;;;;;21.20;69.20;;;;;;5009161;28;93304;-44
2023/07/03 03:17:51;;;;;;;;;;;21.20;69.20;;;;;;5012266;28;91896;-44
2023/07/03 03:20:16;;;;;;;;;;;21.10;69.20;;;;;;5009396;28;93221;-44
2023/07/03 03:22:42;;;;;;;;;;;21.10;69.20;;;;;;5008244;28;92277;-43
2023/07/03 03:25:08;;;;;;;;;;;21.10;69.20;;;;;;5005995;28;93721;-45
2023/07/03 03:27:33;;;;;;;;;;;21.10;69.20;;;;;;5010063;28;93157;-46
2023/07/03 03:29:59;;;;;;;;;;;21.10;69.30;;;;;;5007725;28;92144;-44
2023/07/03 03:32:24;;;;;;;;;;;21.10;69.30;;;;;;5011007;28;92513;-44
2023/07/03 03:34:50;;;;;;;;;;;21.10;69.40;;;;;;5006680;28;93100;-43
2023/07/03 03:37:16;;;;;;;;;;;21.10;69.40;;;;;;5002833;28;92163;-46
2023/07/03 03:39:42;;;;;;;;;;;21.10;69.40;;;;;;5013106;28;92520;-43
2023/07/03 03:42:09;;;;;;;;;;;21.10;69.30;;;;;;5007069;28;91562;-44
2023/07/03 03:44:35;;;;;;;;;;;21.10;69.40;;;;;;5010497;28;93136;-43
2023/07/03 03:47:00;;;;;;;;;;;21.10;69.40;;;;;;5006417;28;94363;-45
2023/07/03 03:49:26;;;;;;;;;;;21.10;69.40;;;;;;5009567;28;93163;-45
2023/07/03 03:51:51;;;;;;;;;;;21.00;69.40;;;;;;5007846;28;93533;-45
2023/07/03 03:54:18;;;;;;;;;;;21.00;69.40;;;;;;5009147;28;93227;-44
2023/07/03 03:56:44;;;;;;;;;;;21.00;69.40;;;;;;5005689;28;92135;-44
2023/07/03 03:59:09;;;;;;;;;;;21.00;69.40;;;;;;5008343;28;92855;-44
2023/07/03 04:01:35;;;;;;;;;;;21.00;69.40;;;;;;5011896;28;92704;-43
2023/07/03 04:04:00;;;;;;;;;;;21.00;69.40;;;;;;5008590;28;92771;-44
2023/07/03 04:06:26;;;;;;;;;;;21.00;69.50;;;;;;5008454;28;92761;-43
2023/07/03 04:08:52;;;;;;;;;;;21.00;69.50;;;;;;5008767;28;92080;-44
2023/07/03 04:11:17;;;;;;;;;;;21.00;69.50;;;;;;5005958;28;92494;-44
2023/07/03 04:13:43;;;;;;;;;;;20.90;69.50;;;;;;5006725;28;93916;-44
2023/07/03 04:16:09;;;;;;;;;;;20.90;69.40;;;;;;5009220;28;92173;-46
2023/07/03 04:18:34;;;;;;;;;;;20.90;69.50;;;;;;5007367;28;92081;-46
2023/07/03 04:21:00;;;;;;;;;;;20.90;69.60;;;;;;5012327;28;92977;-44
2023/07/03 04:23:26;;;;;;;;;;;20.90;69.60;;;;;;5006735;28;93817;-45
2023/07/03 04:25:52;;;;;;;;;;;20.90;69.60;;;;;;5008551;28;93065;-44
2023/07/03 04:28:18;;;;;;;;;;;20.90;69.50;;;;;;5008381;28;92132;-45
2023/07/03 04:30:44;;;;;;;;;;;20.90;69.60;;;;;;5014239;28;92535;-45
2023/07/03 04:33:10;;;;;;;;;;;20.90;69.70;;;;;;5009815;28;92748;-44
2023/07/03 04:35:36;;;;;;;;;;;20.90;69.70;;;;;;5013776;28;92291;-43
2023/07/03 04:38:01;;;;;;;;;;;20.90;69.70;;;;;;5007850;28;95704;-45
2023/07/03 04:40:27;;;;;;;;;;;20.90;69.70;;;;;;5009847;28;93040;-45
2023/07/03 04:42:53;;;;;;;;;;;20.80;69.60;;;;;;5016333;28;92463;-46
2023/07/03 04:45:21;;;;;;;;;;;20.80;69.60;;;;;;5010064;28;92964;-44
2023/07/03 04:47:49;;;;;;;;;;;20.80;69.60;;;;;;5012704;28;92206;-48
2023/07/03 04:50:16;;;;;;;;;;;20.80;69.60;;;;;;5010144;28;92468;-47
2023/07/03 04:52:43;;;;;;;;;;;20.80;69.60;;;;;;5012663;28;93282;-50
2023/07/03 04:55:09;;;;;;;;;;;20.80;69.70;;;;;;5010359;28;91527;-46
2023/07/03 04:57:38;;;;;;;;;;;20.80;69.60;;;;;;5009884;28;92929;-45
2023/07/03 05:00:17;;;;;;;;;;;20.80;69.70;;;;;;5012027;28;93746;-48
2023/07/03 05:02:43;;;;;;;;;;;20.80;69.70;;;;;;5007339;28;93047;-49
2023/07/03 05:05:10;;;;;;;;;;;20.80;69.70;;;;;;5015070;28;93449;-45
2023/07/03 05:07:36;;;;;;;;;;;20.80;69.80;;;;;;5010068;28;92109;-45
2023/07/03 05:10:02;;;;;;;;;;;20.80;69.80;;;;;;5012726;28;92633;-48
2023/07/03 05:12:27;;;;;;;;;;;20.80;69.80;;;;;;5008993;28;93266;-47
2023/07/03 05:14:52;;;;;;;;;;;20.80;69.80;;;;;;5009650;28;92172;-46
2023/07/03 05:17:19;;;;;;;;;;;20.70;69.80;;;;;;5012860;28;92612;-48
2023/07/03 05:19:44;;;;;;;;;;;20.80;69.90;;;;;;5009396;28;91643;-48
2023/07/03 05:22:10;;;;;;;;;;;20.80;69.80;;;;;;5012879;28;92266;-47
2023/07/03 05:24:35;;;;;;;;;;;20.80;69.70;;;;;;5009244;28;92188;-44
2023/07/03 05:27:01;;;;;;;;;;;20.80;69.80;;;;;;5010440;28;94118;-44
2023/07/03 05:29:26;;;;;;;;;;;20.80;69.80;;;;;;5012285;28;93566;-47
2023/07/03 05:31:52;;;;;;;;;;;20.80;69.70;;;;;;5009533;28;93185;-43
2023/07/03 05:34:17;;;;;;;;;;;20.80;69.70;;;;;;5011673;28;92203;-43
2023/07/03 05:36:43;;;;;;;;;;;20.90;69.70;;;;;;5009990;28;92490;-44
2023/07/03 05:39:09;;;;;;;;;;;20.90;69.80;;;;;;5009981;28;94370;-44
2023/07/03 05:41:34;;;;;;;;;;;20.80;69.70;;;;;;5004505;28;92158;-43
2023/07/03 05:43:59;;;;;;;;;;;20.90;69.80;;;;;;5011100;28;92435;-44
2023/07/03 05:46:25;;;;;;;;;;;20.90;69.80;;;;;;5009568;28;93564;-45
2023/07/03 05:48:51;;;;;;;;;;;20.90;69.80;;;;;;5013963;28;92212;-44
2023/07/03 05:51:16;;;;;;;;;;;20.80;69.90;;;;;;5008895;28;94018;-44
2023/07/03 05:53:42;;;;;;;;;;;20.90;69.90;;;;;;5011414;28;92351;-43
2023/07/03 05:56:07;;;;;;;;;;;20.90;69.90;;;;;;5007653;28;92373;-44
2023/07/03 05:58:33;;;;;;;;;;;20.90;69.80;;;;;;5005235;28;93152;-44
2023/07/03 06:01:01;;;;;;;;;;;20.90;69.90;;;;;;5011657;28;92267;-43
2023/07/03 06:03:26;;;;;;;;;;;20.90;69.90;;;;;;5008047;28;92718;-45
2023/07/03 06:05:52;;;;;;;;;;;20.80;69.90;;;;;;5009507;28;94579;-45
2023/07/03 06:08:17;;;;;;;;;;;20.90;70.20;;;;;;5007158;28;91457;-45
2023/07/03 06:10:45;;;;;;;;;;;20.90;69.90;;;;;;5013160;28;92615;-43
2023/07/03 06:13:10;;;;;;;;;;;20.90;69.90;;;;;;5003863;28;92180;-43
2023/07/03 06:15:36;;;;;;;;;;;20.90;69.80;;;;;;5009461;28;93556;-43
2023/07/03 06:18:05;;;;;;;;;;;20.90;69.90;;;;;;5004514;28;94461;-44
2023/07/03 06:20:30;;;;;;;;;;;20.90;69.90;;;;;;5009935;28;92822;-43
2023/07/03 06:22:56;;;;;;;;;;;20.90;69.80;;;;;;5006534;28;92322;-43
2023/07/03 06:25:21;;;;;;;;;;;20.90;69.90;;;;;;5009436;28;94395;-44
2023/07/03 06:27:47;;;;;;;;;;;20.90;69.90;;;;;;5007278;28;92221;-44
2023/07/03 06:30:13;;;;;;;;;;;20.90;69.80;;;;;;5009776;28;92409;-44
2023/07/03 06:32:39;;;;;;;;;;;20.90;69.90;;;;;;5009518;28;92075;-43
2023/07/03 06:35:05;;;;;;;;;;;20.90;69.90;;;;;;5007277;28;92930;-44
2023/07/03 06:37:31;;;;;;;;;;;20.90;69.90;;;;;;5007569;28;92987;-44
2023/07/03 06:39:56;;;;;;;;;;;20.90;69.90;;;;;;5006541;28;93114;-43
2023/07/03 06:42:22;;;;;;;;;;;20.90;69.90;;;;;;5007204;28;92948;-44
2023/07/03 06:44:48;;;;;;;;;;;21.00;70.00;;;;;;5007286;28;94482;-44
2023/07/03 06:47:13;;;;;;;;;;;20.90;69.90;;;;;;5008216;28;92175;-43
2023/07/03 06:49:39;;;;;;;;;;;20.90;70.00;;;;;;5007542;28;92562;-43
2023/07/03 06:52:04;;;;;;;;;;;20.90;69.90;;;;;;5010697;28;93152;-43
2023/07/03 06:54:30;;;;;;;;;;;20.90;70.10;;;;;;5007503;28;92578;-44
2023/07/03 06:56:55;;;;;;;;;;;20.90;70.10;;;;;;5006100;28;92381;-45
2023/07/03 06:59:21;;;;;;;;;;;20.90;70.10;;;;;;5009193;28;92158;-46
2023/07/03 07:01:46;;;;;;;;;;;21.00;70.10;;;;;;5006949;28;92626;-43
2023/07/03 07:04:12;;;;;;;;;;;21.00;70.20;;;;;;5008328;28;94184;-43
2023/07/03 07:06:38;;;;;;;;;;;21.00;70.10;;;;;;5006132;28;92202;-44
2023/07/03 07:09:04;;;;;;;;;;;21.00;70.10;;;;;;5002354;28;93324;-43
2023/07/03 07:11:32;;;;;;;;;;;20.90;70.10;;;;;;5009188;28;94111;-45
2023/07/03 07:13:59;;;;;;;;;;;20.90;70.10;;;;;;5009126;28;92672;-43
2023/07/03 07:16:31;;;;;;;;;;;20.90;70.20;;;;;;5001628;28;93080;-44
2023/07/03 07:18:57;;;;;;;;;;;21.00;70.30;;;;;;5003049;28;92609;-43
2023/07/03 07:21:23;;;;;;;;;;;21.00;70.20;;;;;;5009556;28;93634;-44
2023/07/03 07:23:50;;;;;;;;;;;21.00;70.20;;;;;;5005854;28;92880;-44
2023/07/03 07:26:16;;;;;;;;;;;21.00;70.20;;;;;;5010633;28;92112;-44
2023/07/03 07:28:41;;;;;;;;;;;21.00;70.20;;;;;;5005850;28;93197;-47
2023/07/03 07:31:07;;;;;;;;;;;21.00;70.20;;;;;;5006314;28;93157;-44
2023/07/03 07:33:32;;;;;;;;;;;21.00;70.20;;;;;;5010785;28;92333;-43
2023/07/03 07:35:58;;;;;;;;;;;20.90;70.60;;;;;;5009928;28;92434;-44
2023/07/03 07:38:23;;;;;;;;;;;21.00;70.20;;;;;;5008995;28;92343;-44
2023/07/03 07:40:59;;;;;;;;;;;21.00;70.20;;;;;;5007087;28;92433;-43
2023/07/03 07:43:24;;;;;;;;;;;21.00;70.60;;;;;;5000329;28;94383;-45
2023/07/03 07:45:53;;;;;;;;;;;21.00;70.30;;;;;;5010721;28;91392;-44
2023/07/03 07:48:19;;;;;;;;;;;21.00;70.70;;;;;;5002757;28;92923;-44
2023/07/03 07:50:44;;;;;;;;;;;21.00;70.30;;;;;;5009886;28;93059;-43
2023/07/03 07:53:10;;;;;;;;;;;21.00;70.10;;;;;;5005603;28;92970;-46
2023/07/03 07:55:35;;;;;;;;;;;21.00;70.10;;;;;;5010290;28;93948;-44
2023/07/03 07:58:01;;;;;;;;;;;21.00;70.00;;;;;;5008259;28;93247;-44
2023/07/03 08:00:26;;;;;;;;;;;21.10;70.20;;;;;;5006784;28;92073;-44
2023/07/03 08:02:52;;;;;;;;;;;21.10;70.20;;;;;;5006572;28;92995;-44
2023/07/03 08:05:18;;;;;;;;;;;21.00;70.80;;;;;;5005457;28;92152;-43
2023/07/03 08:07:44;;;;;;;;;;;21.00;70.80;;;;;;5007229;28;92645;-44
2023/07/03 08:10:10;;;;;;;;;;;21.00;70.70;;;;;;5006863;28;93699;-44
2023/07/03 08:12:36;;;;;;;;;;;21.00;70.50;;;;;;5008001;28;92012;-45
2023/07/03 08:15:03;;;;;;;;;;;21.00;70.60;;;;;;5007455;28;92623;-44
2023/07/03 08:17:29;;;;;;;;;;;21.00;71.10;;;;;;5007455;28;95394;-44
2023/07/03 08:19:56;;;;;;;;;;;21.00;71.50;;;;;;5011265;28;92109;-44
2023/07/03 08:22:22;;;;;;;;;;;21.10;70.90;;;;;;5007986;28;93323;-44
2023/07/03 08:24:47;;;;;;;;;;;21.10;70.90;;;;;;5007337;28;92142;-45
2023/07/03 08:27:13;;;;;;;;;;;21.10;70.90;;;;;;5006414;28;92475;-43
2023/07/03 08:29:38;;;;;;;;;;;21.10;70.60;;;;;;5006746;28;93149;-44
2023/07/03 08:32:05;;;;;;;;;;;21.10;70.60;;;;;;5008839;28;92491;-44
2023/07/03 08:34:31;;;;;;;;;;;21.10;70.60;;;;;;5007692;28;92973;-44
2023/07/03 08:36:56;;;;;;;;;;;21.10;70.60;;;;;;5008440;28;93192;-44
2023/07/03 08:39:22;;;;;;;;;;;21.20;70.80;;;;;;5009044;28;92190;-46
2023/07/03 08:41:51;;;;;;;;;;;21.20;70.90;;;;;;5007542;28;93302;-44
2023/07/03 08:44:16;;;;;;;;;;;21.10;70.70;;;;;;5004291;28;92262;-44
2023/07/03 08:46:42;;;;;;;;;;;21.10;71.00;;;;;;5005280;28;92293;-44
2023/07/03 08:49:11;;;;;;;;;;;21.10;71.10;;;;;;5008649;28;93039;-45
2023/07/03 08:51:37;;;;;;;;;;;21.10;71.20;;;;;;5006548;28;92127;-45
2023/07/03 08:54:12;;;;;;;;;;;21.10;71.00;;;;;;5007930;28;92219;-44
2023/07/03 08:56:38;;;;;;;;;;;21.10;71.40;;;;;;5006473;28;93606;-45
2023/07/03 08:59:03;;;;;;;;;;;21.20;71.40;;;;;;5005916;28;92491;-47
2023/07/03 09:01:29;;;;;;;;;;;21.20;71.50;;;;;;5011055;28;92112;-44
2023/07/03 09:04:13;;;;;;;;;;;21.20;71.30;;;;;;5006717;28;92775;-47
2023/07/03 09:06:48;;;;;;;;;;;21.20;71.20;;;;;;5005512;28;92934;-46
2023/07/03 09:09:25;;;;;;;;;;;21.20;71.30;;;;;;5001870;28;93086;-44
2023/07/03 09:12:03;;;;;;;;;;;21.20;71.30;;;;;;5006987;28;92118;-47
2023/07/03 09:14:32;;;;;;;;;;;21.20;71.50;;;;;;5007843;28;93938;-45
2023/07/03 09:16:58;;;;;;;;;;;21.20;71.50;;;;;;5008252;28;93256;-49
2023/07/03 09:19:25;;;;;;;;;;;21.20;71.50;;;;;;5012084;28;92542;-45
2023/07/03 09:21:52;;;;;;;;;;;21.20;71.60;;;;;;5008357;28;92033;-47
2023/07/03 09:24:20;;;;;;;;;;;21.20;71.50;;;;;;5013908;28;91617;-46
2023/07/03 09:27:08;;;;;;;;;;;21.20;71.50;;;;;;5007936;28;92034;-45
2023/07/03 09:29:34;;;;;;;;;;;21.20;71.60;;;;;;5007527;28;93407;-48
2023/07/03 09:32:00;;;;;;;;;;;21.20;71.60;;;;;;5008883;28;93078;-47
2023/07/03 09:34:25;;;;;;;;;;;21.20;71.60;;;;;;5009552;28;93423;-47
2023/07/03 09:36:58;;;;;;;;;;;21.20;71.70;;;;;;5010226;28;93201;-50
2023/07/03 09:39:24;;;;;;;;;;;21.30;71.50;;;;;;5009834;28;92065;-47
2023/07/03 09:41:50;;;;;;;;;;;21.30;71.40;;;;;;5011140;28;92420;-49
2023/07/03 09:44:17;;;;;;;;;;;21.40;71.40;;;;;;5009109;28;94587;-51
2023/07/03 09:46:43;;;;;;;;;;;21.30;71.40;;;;;;5013763;28;92284;-43
2023/07/03 09:49:22;;;;;;;;;;;21.40;71.40;;;;;;5009677;28;92381;-45
2023/07/03 09:51:51;;;;;;;;;;;21.30;71.40;;;;;;5007277;28;92200;-45
2023/07/03 09:54:19;;;;;;;;;;;21.40;71.50;;;;;;5003482;28;92438;-43
2023/07/03 09:56:46;;;;;;;;;;;21.30;71.50;;;;;;5002110;28;94742;-44
2023/07/03 09:59:14;;;;;;;;;;;21.30;71.70;;;;;;5002306;28;92166;-43
2023/07/03 10:01:39;;;;;;;;;;;21.30;71.70;;;;;;5004008;28;94184;-45
2023/07/03 10:04:07;;;;;;;;;;;21.40;71.60;;;;;;5011970;28;92944;-43
2023/07/03 10:06:32;;;;;;;;;;;21.40;71.30;;;;;;5004566;28;92174;-44
2023/07/03 10:08:59;;;;;;;;;;;21.50;71.40;;;;;;5014503;28;94023;-44
2023/07/03 10:11:39;;;;;;;;;;;21.50;71.20;;;;;;5008081;28;92392;-45
2023/07/03 10:14:06;;;;;;;;;;;21.50;71.20;;;;;;5006573;28;94428;-45
2023/07/03 10:16:33;;;;;;;;;;;21.60;71.20;;;;;;5009220;28;92896;-44
2023/07/03 10:18:58;;;;;;;;;;;21.60;71.20;;;;;;5009071;28;92232;-44
2023/07/03 10:21:24;;;;;;;;;;;21.60;71.10;;;;;;5008765;28;93986;-44
2023/07/03 10:23:50;;;;;;;;;;;21.60;71.20;;;;;;5010338;28;94329;-45
2023/07/03 10:26:22;;;;;;;;;;;21.60;71.20;;;;;;5008213;28;92097;-47
2023/07/03 10:28:57;;;;;;;;;;;21.60;71.30;;;;;;5009958;28;92086;-44
2023/07/03 10:31:43;;;;;;;;;;;21.60;71.30;;;;;;5008472;28;92065;-44
2023/07/03 10:34:10;;;;;;;;;;;21.60;71.20;;;;;;5005448;28;92593;-44
2023/07/03 10:36:37;;;;;;;;;;;21.70;71.30;;;;;;5009712;28;94693;-44
2023/07/03 10:39:11;;;;;;;;;;;21.70;71.10;;;;;;5009429;28;91374;-45
2023/07/03 10:41:40;;;;;;;;;;;21.70;71.10;;;;;;5009063;28;92047;-43
2023/07/03 10:44:11;;;;;;;;;;;21.70;71.10;;;;;;5006389;28;93096;-44
2023/07/03 10:46:39;;;;;;;;;;;21.70;71.00;;;;;;5010527;28;93077;-44
2023/07/03 10:49:08;;;;;;;;;;;21.80;71.10;;;;;;5008818;28;93298;-45
2023/07/03 10:51:39;;;;;;;;;;;21.80;71.00;;;;;;5013733;28;93119;-43
2023/07/03 10:54:13;;;;;;;;;;;21.80;70.90;;;;;;5003907;28;94256;-43
2023/07/03 10:56:43;;;;;;;;;;;21.80;70.90;;;;;;5005024;28;94606;-44
2023/07/03 10:59:08;;;;;;;;;;;21.80;70.80;;;;;;5005420;28;92186;-44
2023/07/03 11:01:34;;;;;;;;;;;21.90;70.90;;;;;;5009379;28;93508;-43
2023/07/03 11:03:59;;;;;;;;;;;21.80;70.90;;;;;;5006810;28;92449;-45
2023/07/03 11:06:27;;;;;;;;;;;21.80;71.00;;;;;;5009421;28;92596;-44
2023/07/03 11:08:52;;;;;;;;;;;21.90;71.10;;;;;;5006165;28;92083;-45
2023/07/03 11:11:23;;;;;;;;;;;21.90;71.10;;;;;;5009465;28;94128;-44
2023/07/03 11:13:55;;;;;;;;;;;21.90;71.00;;;;;;5011010;28;92157;-44
2023/07/03 11:16:24;;;;;;;;;;;21.90;70.80;;;;;;5009490;28;92758;-44
2023/07/03 11:18:59;;;;;;;;;;;21.90;70.80;;;;;;5008026;28;92077;-43
2023/07/03 11:21:36;;;;;;;;;;;21.90;70.70;;;;;;5006669;28;92540;-44
2023/07/03 11:24:01;;;;;;;;;;;22.00;70.90;;;;;;5001630;28;93278;-44
2023/07/03 11:26:36;;;;;;;;;;;22.00;70.90;;;;;;5009497;28;92574;-44
2023/07/03 11:29:02;;;;;;;;;;;22.00;71.00;;;;;;5005305;28;93972;-44
2023/07/03 11:31:28;;;;;;;;;;;22.00;70.80;;;;;;5009664;28;92977;-46
2023/07/03 11:33:54;;;;;;;;;;;22.00;70.80;;;;;;5005599;28;92146;-43
2023/07/03 11:36:38;;;;;;;;;;;22.10;70.80;;;;;;5010457;28;93592;-45
2023/07/03 11:39:11;;;;;;;;;;;22.10;70.80;;;;;;5007779;28;92159;-44
2023/07/03 11:41:44;;;;;;;;;;;22.10;70.80;;;;;;5004889;28;93722;-44
2023/07/03 11:44:16;;;;;;;;;;;22.10;70.70;;;;;;5000907;28;95065;-47
2023/07/03 11:46:41;;;;;;;;;;;22.20;70.80;;;;;;5008487;28;92308;-45
2023/07/03 11:49:10;;;;;;;;;;;22.20;70.70;;;;;;5006647;28;92578;-44
2023/07/03 11:51:37;;;;;;;;;;;22.10;70.80;;;;;;5007545;28;92668;-43
2023/07/03 11:54:17;;;;;;;;;;;22.20;70.80;;;;;;5006639;28;91688;-44
2023/07/03 11:56:44;;;;;;;;;;;22.20;70.70;;;;;;5008600;28;92950;-44
2023/07/03 11:59:12;;;;;;;;;;;22.20;70.60;;;;;;5007092;28;93279;-45
2023/07/03 12:01:37;;;;;;;;;;;22.20;70.60;;;;;;5009147;28;92988;-44
2023/07/03 12:04:09;;;;;;;;;;;22.30;70.60;;;;;;5007086;28;93096;-45
2023/07/03 12:06:37;;;;;;;;;;;22.30;70.50;;;;;;5009771;28;92060;-43
2023/07/03 12:09:24;;;;;;;;;;;22.30;70.60;;;;;;5006295;28;92426;-44
2023/07/03 12:11:59;;;;;;;;;;;22.30;70.50;;;;;;5005065;28;93016;-43
2023/07/03 12:14:40;;;;;;;;;;;22.30;70.60;;;;;;5005414;28;92170;-44
2023/07/03 12:17:24;;;;;;;;;;;22.30;70.60;;;;;;5002584;28;94149;-44
2023/07/03 12:19:53;;;;;;;;;;;22.30;70.60;;;;;;5006550;28;92363;-45
2023/07/03 12:22:20;;;;;;;;;;;22.40;70.50;;;;;;5012662;28;92225;-43
2023/07/03 12:24:45;;;;;;;;;;;22.40;70.50;;;;;;5005659;28;94413;-45
2023/07/03 12:27:11;;;;;;;;;;;22.40;70.50;;;;;;5007112;28;93168;-43
2023/07/03 12:29:44;;;;;;;;;;;22.40;70.50;;;;;;5004281;28;92594;-46
2023/07/03 12:32:09;;;;;;;;;;;22.40;70.40;;;;;;5000525;28;93189;-44
2023/07/03 12:34:39;;;;;;;;;;;22.40;70.50;;;;;;5001622;28;92082;-44
2023/07/03 12:37:07;;;;;;;;;;;22.40;70.40;;;;;;5001043;28;92658;-45
2023/07/03 12:39:33;;;;;;;;;;;22.40;70.40;;;;;;5007386;28;94917;-45
2023/07/03 12:42:05;;;;;;;;;;;22.40;70.40;;;;;;5007530;28;92145;-44
2023/07/03 12:44:31;;;;;;;;;;;22.50;70.70;;;;;;5006289;28;93130;-44
2023/07/03 12:47:05;;;;;;;;;;;22.50;70.30;;;;;;5005622;28;92165;-44
2023/07/03 12:49:31;;;;;;;;;;;22.50;70.30;;;;;;5009188;28;92805;-47
2023/07/03 12:51:57;;;;;;;;;;;22.50;70.30;;;;;;5008565;28;94103;-43
2023/07/03 12:54:24;;;;;;;;;;;22.50;70.30;;;;;;5010053;28;92154;-45
2023/07/03 12:56:51;;;;;;;;;;;22.50;70.30;;;;;;5010316;28;92386;-46
2023/07/03 12:59:18;;;;;;;;;;;22.50;70.30;;;;;;5009950;28;93040;-47
2023/07/03 13:01:49;;;;;;;;;;;22.50;70.30;;;;;;5008542;28;92211;-45
2023/07/03 13:04:23;;;;;;;;;;;22.50;70.20;;;;;;5013469;28;92461;-44
2023/07/03 13:06:49;;;;;;;;;;;22.60;70.20;;;;;;5012138;28;92473;-44
2023/07/03 13:09:15;;;;;;;;;;;22.60;70.00;;;;;;5011189;28;92557;-44
2023/07/03 13:11:45;;;;;;;;;;;22.60;70.60;;;;;;5011505;28;93227;-45
2023/07/03 13:14:19;;;;;;;;;;;22.70;70.00;;;;;;5010332;28;93007;-46
2023/07/03 13:16:47;;;;;;;;;;;22.70;69.90;;;;;;5005490;28;93008;-46
2023/07/03 13:19:34;;;;;;;;;;;22.70;69.90;;;;;;5000091;28;94613;-43
2023/07/03 13:22:06;;;;;;;;;;;22.80;69.90;;;;;;5009745;28;92044;-46
2023/07/03 13:24:32;;;;;;;;;;;22.80;69.90;;;;;;5008181;28;92426;-46
2023/07/03 13:26:58;;;;;;;;;;;22.80;70.00;;;;;;5013888;28;92977;-47
2023/07/03 13:29:28;;;;;;;;;;;22.90;70.00;;;;;;5009707;28;92488;-49
2023/07/03 13:32:13;;;;;;;;;;;22.80;70.00;;;;;;5008372;28;93057;-49
2023/07/03 13:34:57;;;;;;;;;;;22.90;69.90;;;;;;5009083;28;91457;-46
2023/07/03 13:37:27;;;;;;;;;;;22.90;69.90;;;;;;5004514;28;93067;-48
2023/07/03 13:39:52;;;;;;;;;;;23.00;69.80;;;;;;5009281;28;95012;-46
2023/07/03 13:42:18;;;;;;;;;;;23.00;69.80;;;;;;5006453;28;92993;-48
2023/07/03 13:44:43;;;;;;;;;;;23.00;69.80;;;;;;5011172;28;93438;-46
2023/07/03 13:47:09;;;;;;;;;;;23.00;69.80;;;;;;5005957;28;93361;-45
2023/07/03 13:49:34;;;;;;;;;;;23.00;69.80;;;;;;5014574;28;92079;-43
2023/07/03 13:52:01;;;;;;;;;;;23.00;69.70;;;;;;5008423;28;94257;-49
2023/07/03 13:54:26;;;;;;;;;;;23.00;69.70;;;;;;5011317;28;92287;-49
2023/07/03 13:56:52;;;;;;;;;;;23.10;69.50;;;;;;5009424;28;92450;-48
2023/07/03 13:59:18;;;;;;;;;;;23.10;70.00;;;;;;5011242;28;93824;-48
2023/07/03 14:01:43;;;;;;;;;;;23.20;69.40;;;;;;5006878;28;92160;-48
2023/07/03 14:04:09;;;;;;;;;;;23.20;69.40;;;;;;5009783;28;92156;-50
2023/07/03 14:06:35;;;;;;;;;;;23.20;69.30;;;;;;5009791;28;94202;-47
2023/07/03 14:09:01;;;;;;;;;;;23.30;69.40;;;;;;5010201;28;92163;-45
2023/07/03 14:11:26;;;;;;;;;;;23.30;70.00;;;;;;5013007;28;92330;-44
2023/07/03 14:13:52;;;;;;;;;;;23.30;69.50;;;;;;5010485;28;92166;-44
2023/07/03 14:16:18;;;;;;;;;;;23.20;69.80;;;;;;5007998;28;93273;-44
2023/07/03 14:18:44;;;;;;;;;;;23.10;70.10;;;;;;5009149;28;94487;-43